createdAt,value
2018-04-27T00:01:31.389Z,43.50
2018-04-27T00:03:59.388Z,43.50
2018-04-27T00:06:27.332Z,43.50
2018-04-27T00:08:55.254Z,43.70
2018-04-27T00:11:23.258Z,43.90
2018-04-27T00:13:52.020Z,44.10
2018-04-27T00:16:19.951Z,44.10
2018-04-27T00:18:47.875Z,44.20
2018-04-27T00:21:16.606Z,44.30
2018-04-27T00:23:44.523Z,44.30
2018-04-27T00:26:13.327Z,44.60
2018-04-27T00:28:41.251Z,44.60
2018-04-27T00:31:09.192Z,44.80
2018-04-27T00:33:37.116Z,44.90
2018-04-27T00:36:05.857Z,45.10
2018-04-27T00:38:33.789Z,45.10
2018-04-27T00:41:01.685Z,45.30
2018-04-27T00:43:29.712Z,45.50
2018-04-27T00:45:58.503Z,45.80
2018-04-27T00:48:27.207Z,46.10
2018-04-27T00:50:55.144Z,46.00
2018-04-27T00:53:23.900Z,46.90
2018-04-27T00:55:53.909Z,46.90
2018-04-27T00:58:21.836Z,47.40
2018-04-27T01:00:50.551Z,48.20
2018-04-27T01:03:18.467Z,48.10
2018-04-27T01:05:46.495Z,48.60
2018-04-27T01:08:14.448Z,48.90
2018-04-27T01:10:42.388Z,49.30
2018-04-27T01:13:11.167Z,49.80
2018-04-27T01:15:54.012Z,50.00
2018-04-27T01:18:30.282Z,50.10
2018-04-27T01:21:07.249Z,50.20
2018-04-27T01:23:35.196Z,50.50
2018-04-27T01:26:03.897Z,50.90
2018-04-27T01:28:32.609Z,51.20
2018-04-27T01:31:00.544Z,51.20
2018-04-27T01:33:29.336Z,51.70
2018-04-27T01:35:58.025Z,52.00
2018-04-27T01:38:26.762Z,52.20
2018-04-27T01:40:54.680Z,52.20
2018-04-27T01:43:23.418Z,52.80
2018-04-27T01:45:51.391Z,52.80
2018-04-27T01:48:19.383Z,53.10
2018-04-27T01:50:47.315Z,53.30
2018-04-27T01:53:15.336Z,53.80
2018-04-27T01:55:44.103Z,54.40
2018-04-27T01:58:12.000Z,54.40
2018-04-27T02:00:40.675Z,55.00
2018-04-27T02:03:09.382Z,55.30
2018-04-27T02:05:37.329Z,55.30
2018-04-27T02:08:06.098Z,55.50
2018-04-27T02:10:34.119Z,55.50
2018-04-27T02:13:02.172Z,55.70
2018-04-27T02:15:30.172Z,55.90
2018-04-27T02:17:58.161Z,56.10
2018-04-27T02:20:26.103Z,56.10
2018-04-27T02:22:54.186Z,56.20
2018-04-27T02:25:22.204Z,56.30
2018-04-27T02:27:50.975Z,56.90
2018-04-27T02:30:18.989Z,56.90
2018-04-27T02:32:46.944Z,57.10
2018-04-27T02:35:15.751Z,58.20
2018-04-27T02:37:43.819Z,57.60
2018-04-27T02:40:11.734Z,57.80
2018-04-27T02:42:39.697Z,58.00
2018-04-27T02:45:07.676Z,58.10
2018-04-27T02:47:35.667Z,58.30
2018-04-27T02:50:04.466Z,58.60
2018-04-27T02:52:33.153Z,58.60
2018-04-27T02:55:01.875Z,58.80
2018-04-27T02:57:29.884Z,58.80
2018-04-27T02:59:57.822Z,58.90
2018-04-27T03:02:25.795Z,59.00
2018-04-27T03:04:53.821Z,59.00
2018-04-27T03:07:21.747Z,59.10
2018-04-27T03:09:49.760Z,59.10
2018-04-27T03:12:17.661Z,59.10
2018-04-27T03:14:45.606Z,59.10
2018-04-27T03:17:13.570Z,59.20
2018-04-27T03:19:41.504Z,59.10
2018-04-27T03:22:09.459Z,59.10
2018-04-27T03:24:37.391Z,58.80
2018-04-27T03:27:05.305Z,59.20
2018-04-27T03:29:33.248Z,59.10
2018-04-27T03:32:01.268Z,59.10
2018-04-27T03:34:29.953Z,59.10
2018-04-27T03:36:58.664Z,59.10
2018-04-27T03:39:26.600Z,59.00
2018-04-27T03:41:55.359Z,59.00
2018-04-27T03:44:23.332Z,58.90
2018-04-27T03:46:51.261Z,58.90
2018-04-27T03:49:19.177Z,58.80
2018-04-27T03:51:47.196Z,58.80
2018-04-27T03:54:15.109Z,58.70
2018-04-27T03:56:43.023Z,58.80
2018-04-27T03:59:10.940Z,58.70
2018-04-27T04:01:50.814Z,58.70
2018-04-27T04:04:46.236Z,58.70
2018-04-27T04:07:14.953Z,58.50
2018-04-27T04:09:42.898Z,58.50
2018-04-27T04:12:10.932Z,58.50
2018-04-27T04:14:38.919Z,58.50
2018-04-27T04:17:07.652Z,58.50
2018-04-27T04:19:35.604Z,58.50
2018-04-27T04:22:03.574Z,58.40
2018-04-27T04:24:31.592Z,58.30
2018-04-27T04:26:59.535Z,58.30
2018-04-27T04:29:27.544Z,58.30
2018-04-27T04:31:56.298Z,58.30
2018-04-27T04:34:24.281Z,58.20
2018-04-27T04:36:52.292Z,58.20
2018-04-27T04:39:20.222Z,58.20
2018-04-27T04:41:48.360Z,58.60
2018-04-27T04:44:16.401Z,58.00
2018-04-27T04:46:45.185Z,58.00
2018-04-27T04:49:13.904Z,58.00
2018-04-27T04:51:41.908Z,58.00
2018-04-27T04:54:09.805Z,58.00
2018-04-27T04:56:37.788Z,58.00
2018-04-27T04:59:05.733Z,58.00
2018-04-27T05:01:34.992Z,58.10
2018-04-27T05:04:03.092Z,58.00
2018-04-27T05:06:31.120Z,58.00
2018-04-27T05:08:59.132Z,58.00
2018-04-27T05:11:27.101Z,58.00
2018-04-27T05:13:55.108Z,58.10
2018-04-27T05:16:23.199Z,58.10
2018-04-27T05:18:51.316Z,58.10
2018-04-27T05:21:19.337Z,58.10
2018-04-27T05:23:47.357Z,58.10
2018-04-27T05:26:15.408Z,57.90
2018-04-27T05:28:44.140Z,57.70
2018-04-27T05:31:26.655Z,57.60
2018-04-27T05:33:54.682Z,57.60
2018-04-27T05:36:22.740Z,57.60
2018-04-27T05:38:50.735Z,57.60
2018-04-27T05:41:18.788Z,57.50
2018-04-27T05:43:46.780Z,57.60
2018-04-27T05:46:14.956Z,57.40
2018-04-27T05:48:43.775Z,57.40
2018-04-27T05:51:11.866Z,57.40
2018-04-27T05:53:39.857Z,57.40
2018-04-27T05:56:07.954Z,57.40
2018-04-27T05:58:35.896Z,57.20
2018-04-27T06:01:03.889Z,57.10
2018-04-27T06:03:43.689Z,57.10
2018-04-27T06:06:11.619Z,57.00
2018-04-27T06:08:40.324Z,56.80
2018-04-27T06:11:08.281Z,56.70
2018-04-27T06:13:36.986Z,56.70
2018-04-27T06:16:04.988Z,56.70
2018-04-27T06:18:33.000Z,56.50
2018-04-27T06:21:01.770Z,56.40
2018-04-27T06:23:29.790Z,56.30
2018-04-27T06:25:57.812Z,56.30
2018-04-27T06:28:25.864Z,56.20
2018-04-27T06:30:53.937Z,56.20
2018-04-27T06:33:21.911Z,56.10
2018-04-27T06:35:49.916Z,56.10
2018-04-27T06:38:18.609Z,56.10
2018-04-27T06:40:46.660Z,56.10
2018-04-27T06:43:15.471Z,56.00
2018-04-27T06:45:43.494Z,56.00
2018-04-27T06:48:11.551Z,55.90
2018-04-27T06:50:39.553Z,55.80
2018-04-27T06:53:07.550Z,55.70
2018-04-27T06:55:35.524Z,55.80
2018-04-27T06:58:03.515Z,55.80
2018-04-27T07:00:31.467Z,55.70
2018-04-27T07:02:59.493Z,55.80
2018-04-27T07:05:27.533Z,55.70
2018-04-27T07:07:55.576Z,55.70
2018-04-27T07:10:23.620Z,55.70
2018-04-27T07:12:52.405Z,55.70
2018-04-27T07:15:21.224Z,55.80
2018-04-27T07:17:49.120Z,55.80
2018-04-27T07:20:17.052Z,55.90
2018-04-27T07:22:45.004Z,55.80
2018-04-27T07:25:13.790Z,55.70
2018-04-27T07:27:42.579Z,55.60
2018-04-27T07:30:11.344Z,55.60
2018-04-27T07:32:39.311Z,55.50
2018-04-27T07:35:07.321Z,55.60
2018-04-27T07:37:35.412Z,55.60
2018-04-27T07:40:03.458Z,56.10
2018-04-27T07:42:32.241Z,55.40
2018-04-27T07:45:01.119Z,55.40
2018-04-27T07:47:29.944Z,55.30
2018-04-27T07:49:57.977Z,55.30
2018-04-27T07:52:26.808Z,55.30
2018-04-27T07:54:54.846Z,55.20
2018-04-27T07:57:23.737Z,55.40
2018-04-27T07:59:52.543Z,55.50
2018-04-27T08:02:20.678Z,55.40
2018-04-27T08:04:49.584Z,55.50
2018-04-27T08:07:18.468Z,55.40
2018-04-27T08:09:47.396Z,55.40
2018-04-27T08:12:15.431Z,55.40
2018-04-27T08:14:44.183Z,55.30
2018-04-27T08:17:12.277Z,55.20
2018-04-27T08:19:40.315Z,55.30
2018-04-27T08:22:08.315Z,55.30
2018-04-27T08:24:36.435Z,55.30
2018-04-27T08:27:04.632Z,55.30
2018-04-27T08:29:32.740Z,55.30
2018-04-27T08:32:00.785Z,55.40
2018-04-27T08:34:28.775Z,55.30
2018-04-27T08:36:56.779Z,55.30
2018-04-27T08:39:24.681Z,55.30
2018-04-27T08:41:53.417Z,55.30
2018-04-27T08:44:22.191Z,55.20
2018-04-27T08:46:50.193Z,55.20
2018-04-27T08:49:18.188Z,55.10
2018-04-27T08:51:46.258Z,55.20
2018-04-27T08:54:14.316Z,55.10
2018-04-27T08:56:42.508Z,55.00
2018-04-27T08:59:10.529Z,54.90
2018-04-27T09:01:39.245Z,54.80
2018-04-27T09:04:07.165Z,54.80
2018-04-27T09:06:35.125Z,54.90
2018-04-27T09:09:03.263Z,54.90
2018-04-27T09:11:31.219Z,54.70
2018-04-27T09:13:59.263Z,54.80
2018-04-27T09:16:27.968Z,54.50
2018-04-27T09:18:56.646Z,54.50
2018-04-27T09:21:25.411Z,54.40
2018-04-27T09:23:53.392Z,54.40
2018-04-27T09:26:22.193Z,54.40
2018-04-27T09:28:50.977Z,54.30
2018-04-27T09:31:19.725Z,54.30
2018-04-27T09:33:47.671Z,54.20
2018-04-27T09:36:15.733Z,54.10
2018-04-27T09:38:43.705Z,54.00
2018-04-27T09:41:11.721Z,54.00
2018-04-27T09:43:39.758Z,54.10
2018-04-27T09:46:07.771Z,54.20
2018-04-27T09:48:35.756Z,54.00
2018-04-27T09:51:04.579Z,53.90
2018-04-27T09:53:32.594Z,53.80
2018-04-27T09:56:00.564Z,53.80
2018-04-27T09:58:28.644Z,53.70
2018-04-27T10:00:57.326Z,53.70
2018-04-27T10:03:25.304Z,53.50
2018-04-27T10:05:54.063Z,53.50
2018-04-27T10:08:22.033Z,53.50
2018-04-27T10:10:50.092Z,53.40
2018-04-27T10:13:18.898Z,53.50
2018-04-27T10:15:46.901Z,53.50
2018-04-27T10:18:14.877Z,53.60
2018-04-27T10:20:42.865Z,53.50
2018-04-27T10:23:10.840Z,53.50
2018-04-27T10:25:38.806Z,53.40
2018-04-27T10:28:06.818Z,53.40
2018-04-27T10:30:34.856Z,53.10
2018-04-27T10:33:02.887Z,53.50
2018-04-27T10:35:31.627Z,53.50
2018-04-27T10:37:59.558Z,53.50
2018-04-27T10:40:27.515Z,53.50
2018-04-27T10:42:55.508Z,53.50
2018-04-27T10:45:23.517Z,53.60
2018-04-27T10:47:51.515Z,53.70
2018-04-27T10:50:20.433Z,53.60
2018-04-27T10:52:48.456Z,53.40
2018-04-27T10:55:16.460Z,53.40
2018-04-27T10:57:44.536Z,53.40
2018-04-27T11:00:12.524Z,53.90
2018-04-27T11:02:46.348Z,53.50
2018-04-27T11:05:14.369Z,53.30
2018-04-27T11:07:43.161Z,53.00
2018-04-27T11:10:11.193Z,53.00
2018-04-27T11:12:39.235Z,52.90
2018-04-27T11:15:08.056Z,53.00
2018-04-27T11:17:36.153Z,52.90
2018-04-27T11:20:04.940Z,53.10
2018-04-27T11:22:33.789Z,53.00
2018-04-27T11:25:01.794Z,53.00
2018-04-27T11:27:30.604Z,52.70
2018-04-27T11:29:58.521Z,52.70
2018-04-27T11:32:26.568Z,52.50
2018-04-27T11:34:54.500Z,52.30
2018-04-27T11:37:23.309Z,51.90
2018-04-27T11:39:51.253Z,51.90
2018-04-27T11:42:19.961Z,51.80
2018-04-27T11:44:47.959Z,51.80
2018-04-27T11:47:15.955Z,51.80
2018-04-27T11:49:43.940Z,51.90
2018-04-27T11:52:12.735Z,51.90
2018-04-27T11:54:41.583Z,52.00
2018-04-27T11:57:09.591Z,51.90
2018-04-27T11:59:38.429Z,52.00
2018-04-27T12:02:06.588Z,51.90
2018-04-27T12:04:34.652Z,51.70
2018-04-27T12:07:02.798Z,51.50
2018-04-27T12:09:31.583Z,51.00
2018-04-27T12:12:00.405Z,50.90
2018-04-27T12:14:28.436Z,50.90
2018-04-27T12:16:56.592Z,51.10
2018-04-27T12:19:24.628Z,51.00
2018-04-27T12:21:52.582Z,50.50
2018-04-27T12:24:20.548Z,50.40
2018-04-27T12:26:48.476Z,50.40
2018-04-27T12:29:16.406Z,50.30
2018-04-27T12:31:44.449Z,50.20
2018-04-27T12:34:12.528Z,50.10
2018-04-27T12:36:40.566Z,50.10
2018-04-27T12:39:09.423Z,50.10
2018-04-27T12:41:37.525Z,50.10
2018-04-27T12:44:05.556Z,50.00
2018-04-27T12:46:33.555Z,49.90
2018-04-27T12:49:01.594Z,49.70
2018-04-27T12:51:29.707Z,49.50
2018-04-27T12:53:57.743Z,49.50
2018-04-27T12:56:25.776Z,49.30
2018-04-27T12:58:53.693Z,49.30
2018-04-27T13:01:21.708Z,49.10
2018-04-27T13:03:50.446Z,48.90
2018-04-27T13:06:18.548Z,48.90
2018-04-27T13:08:47.335Z,48.50
2018-04-27T13:11:15.436Z,48.40
2018-04-27T13:13:43.577Z,48.20
2018-04-27T13:16:11.570Z,47.90
2018-04-27T13:18:39.559Z,47.90
2018-04-27T13:21:07.516Z,47.90
2018-04-27T13:23:35.420Z,47.80
2018-04-27T13:26:03.454Z,47.90
2018-04-27T13:28:31.368Z,47.80
2018-04-27T13:31:00.160Z,48.00
2018-04-27T13:33:28.075Z,48.00
2018-04-27T13:35:56.072Z,48.20
2018-04-27T13:38:24.079Z,48.40
2018-04-27T13:40:52.104Z,48.30
2018-04-27T13:43:20.063Z,48.20
2018-04-27T13:45:48.090Z,48.10
2018-04-27T13:48:16.120Z,48.20
2018-04-27T13:50:44.248Z,48.40
2018-04-27T13:53:13.052Z,48.50
2018-04-27T13:55:41.074Z,48.50
2018-04-27T13:58:09.123Z,48.20
2018-04-27T14:00:37.217Z,48.20
2018-04-27T14:03:05.311Z,48.30
2018-04-27T14:05:33.390Z,48.30
2018-04-27T14:08:02.214Z,48.20
2018-04-27T14:10:30.293Z,48.10
2018-04-27T14:12:58.403Z,48.20
2018-04-27T14:15:26.493Z,48.30
2018-04-27T14:17:55.327Z,48.60
2018-04-27T14:20:23.434Z,48.60
2018-04-27T14:22:51.409Z,48.50
2018-04-27T14:25:19.313Z,48.40
2018-04-27T14:27:47.282Z,48.30
2018-04-27T14:30:15.326Z,48.20
2018-04-27T14:32:44.016Z,48.20
2018-04-27T14:35:12.807Z,48.40
2018-04-27T14:37:41.571Z,48.50
2018-04-27T14:40:09.527Z,48.50
2018-04-27T14:42:37.653Z,48.60
2018-04-27T14:45:05.576Z,48.70
2018-04-27T14:47:33.504Z,48.50
2018-04-27T14:50:01.480Z,48.50
2018-04-27T14:52:29.476Z,48.60
2018-04-27T14:54:57.580Z,48.60
2018-04-27T14:57:26.356Z,48.60
2018-04-27T14:59:54.478Z,48.60
2018-04-27T15:02:22.564Z,48.60
2018-04-27T15:04:50.492Z,48.50
2018-04-27T15:07:19.192Z,48.70
2018-04-27T15:09:47.183Z,48.70
2018-04-27T15:12:15.266Z,48.70
2018-04-27T15:14:43.265Z,48.80
2018-04-27T15:17:11.233Z,48.70
2018-04-27T15:19:39.187Z,48.20
2018-04-27T15:22:07.104Z,48.50
2018-04-27T15:24:35.129Z,48.60
2018-04-27T15:27:03.142Z,48.60
2018-04-27T15:29:31.180Z,48.70
2018-04-27T15:31:59.122Z,48.80
2018-04-27T15:34:27.880Z,48.50
2018-04-27T15:36:55.901Z,48.40
2018-04-27T15:39:24.032Z,48.40
2018-04-27T15:41:52.050Z,48.40
2018-04-27T15:44:20.199Z,48.40
2018-04-27T15:46:48.228Z,48.50
2018-04-27T15:49:16.360Z,48.60
2018-04-27T15:51:44.352Z,48.80
2018-04-27T15:54:13.124Z,48.50
2018-04-27T15:56:41.162Z,48.60
2018-04-27T15:59:09.170Z,48.50
2018-04-27T16:01:38.117Z,48.50
2018-04-27T16:04:06.125Z,48.40
2018-04-27T16:06:34.920Z,48.50
2018-04-27T16:09:03.775Z,48.40
2018-04-27T16:11:31.880Z,48.40
2018-04-27T16:14:00.764Z,48.40
2018-04-27T16:16:28.877Z,48.40
2018-04-27T16:18:58.772Z,48.40
2018-04-27T16:21:27.613Z,48.50
2018-04-27T16:23:55.628Z,48.50
2018-04-27T16:26:29.373Z,48.30
2018-04-27T16:28:57.426Z,48.20
2018-04-27T16:31:25.473Z,48.10
2018-04-27T16:33:54.243Z,48.10
2018-04-27T16:36:22.283Z,48.10
2018-04-27T16:38:50.347Z,48.00
2018-04-27T16:41:18.401Z,48.00
2018-04-27T16:43:46.451Z,48.10
2018-04-27T16:46:15.368Z,48.00
2018-04-27T16:48:43.384Z,48.00
2018-04-27T16:51:11.352Z,47.80
2018-04-27T16:53:39.384Z,47.70
2018-04-27T16:56:07.449Z,47.60
2018-04-27T16:58:43.213Z,47.60
2018-04-27T17:01:11.210Z,48.20
2018-04-27T17:03:39.368Z,47.70
2018-04-27T17:06:07.383Z,47.70
2018-04-27T17:08:35.455Z,47.60
2018-04-27T17:11:04.229Z,47.70
2018-04-27T17:13:33.120Z,47.60
2018-04-27T17:16:01.120Z,47.60
2018-04-27T17:18:29.211Z,47.70
2018-04-27T17:20:57.315Z,47.60
2018-04-27T17:23:25.343Z,47.60
2018-04-27T17:25:53.436Z,47.50
2018-04-27T17:28:21.486Z,47.60
2018-04-27T17:30:49.531Z,47.50
2018-04-27T17:33:18.308Z,47.70
2018-04-27T17:35:47.072Z,47.60
2018-04-27T17:38:15.108Z,47.50
2018-04-27T17:40:43.175Z,47.50
2018-04-27T17:43:11.264Z,47.40
2018-04-27T17:51:26.349Z,47.50
2018-04-27T17:53:55.080Z,47.60
2018-04-27T17:56:23.982Z,47.60
2018-04-27T17:58:52.258Z,47.70
2018-04-27T18:01:20.384Z,47.70
2018-04-27T18:03:48.593Z,47.70
2018-04-27T18:06:18.417Z,47.80
2018-04-27T18:08:46.693Z,47.80
2018-04-27T18:11:14.958Z,47.80
2018-04-27T18:13:43.135Z,47.80
2018-04-27T18:16:11.521Z,47.80
2018-04-27T18:18:39.900Z,47.90
2018-04-27T18:21:08.278Z,47.90
2018-04-27T18:23:36.443Z,47.90
2018-04-27T18:26:04.614Z,48.00
2018-04-27T18:28:33.005Z,48.00
2018-04-27T18:31:01.383Z,48.00
2018-04-27T18:33:29.545Z,48.00
2018-04-27T18:35:58.446Z,48.60
2018-04-27T18:38:26.712Z,48.00
2018-04-27T19:21:19.935Z,48.70
2018-04-27T19:23:48.223Z,48.80
2018-04-27T19:26:16.292Z,49.00
2018-04-27T19:28:44.572Z,49.00
2018-04-27T19:31:12.630Z,49.10
2018-04-27T19:33:42.549Z,49.20
2018-04-27T19:36:10.931Z,49.10
2018-04-27T19:38:38.996Z,49.30
2018-04-27T19:41:08.063Z,49.20
2018-04-27T19:43:36.161Z,49.30
2018-04-27T19:46:05.882Z,49.60
2018-04-27T19:48:33.950Z,49.60
2018-04-27T19:51:02.017Z,49.70
2018-04-27T19:53:31.657Z,50.10
2018-04-27T19:55:59.910Z,49.90
2018-04-27T19:58:27.968Z,50.00
2018-04-27T20:01:04.932Z,50.20
2018-04-27T20:03:44.960Z,50.20
2018-04-27T20:06:17.207Z,50.20
2018-04-27T20:08:53.645Z,50.40
2018-04-27T20:11:21.757Z,50.50
2018-04-27T20:13:49.995Z,50.60
2018-04-27T20:16:29.720Z,50.60
2018-04-27T20:18:57.914Z,50.60
2018-04-27T20:21:26.803Z,50.70
2018-04-27T20:23:54.870Z,50.70
2018-04-27T20:26:22.939Z,50.80
2018-04-27T20:28:51.225Z,50.90
2018-04-27T20:31:20.103Z,51.10
2018-04-27T20:33:48.997Z,51.40
2018-04-27T20:36:17.782Z,51.60
2018-04-27T20:38:46.674Z,51.60
2018-04-27T20:41:16.393Z,51.70
2018-04-27T20:43:44.463Z,51.60
2018-04-27T20:46:12.529Z,51.80
2018-04-27T20:48:40.600Z,52.00
2018-04-27T20:51:21.040Z,52.30
2018-04-27T20:53:52.108Z,52.30
2018-04-27T20:56:20.244Z,52.30
2018-04-27T20:58:48.456Z,52.40
2018-04-27T21:01:16.515Z,52.50
2018-04-27T21:03:45.622Z,52.70
2018-04-27T21:06:13.790Z,52.80
2018-04-27T21:08:41.856Z,52.70
2018-04-27T21:11:14.645Z,53.00
2018-04-27T21:13:43.533Z,53.00
2018-04-27T21:16:11.601Z,53.10
2018-04-27T21:18:40.392Z,53.10
2018-04-27T21:21:09.283Z,53.10
2018-04-27T21:23:38.067Z,53.20
2018-04-27T21:26:06.254Z,53.20
2018-04-27T21:28:36.052Z,53.40
2018-04-27T21:31:04.946Z,53.60
2018-04-27T21:33:58.587Z,53.70
2018-04-27T21:36:30.476Z,53.70
2018-04-27T21:39:16.158Z,53.90
2018-04-27T21:41:58.476Z,54.00
2018-04-27T21:44:28.380Z,53.90
2018-04-27T21:50:16.755Z,54.50
2018-04-27T21:52:44.819Z,54.20
2018-04-27T21:55:12.997Z,54.30
2018-04-27T21:57:56.928Z,54.60
2018-04-27T22:00:26.032Z,54.60
2018-04-27T22:06:17.786Z,55.10
2018-04-27T22:08:46.138Z,55.10
2018-04-27T22:11:43.848Z,55.10
2018-04-27T22:14:14.453Z,55.50
2018-04-27T22:16:43.340Z,55.50
2018-04-27T22:19:13.364Z,55.70
2018-04-27T22:21:42.252Z,55.80
2018-04-27T22:24:12.846Z,55.90
2018-04-27T22:26:40.950Z,56.10
2018-04-27T22:29:22.856Z,56.20
2018-04-27T22:31:51.133Z,56.30
2018-04-27T22:34:26.268Z,56.40
2018-04-27T22:36:54.295Z,56.50
2018-04-27T22:42:22.421Z,56.90
2018-04-27T22:45:08.001Z,56.70
2018-04-27T22:50:35.687Z,57.20
2018-04-27T22:53:03.762Z,57.00
2018-04-27T22:55:31.832Z,57.20
2018-04-27T22:58:03.805Z,57.40
2018-04-27T23:00:33.808Z,57.60
2018-04-27T23:03:01.883Z,58.20
2018-04-27T23:05:35.765Z,57.70
2018-04-27T23:08:04.681Z,57.90
2018-04-27T23:10:45.552Z,58.00
2018-04-27T23:13:19.460Z,58.20
2018-04-27T23:15:47.531Z,58.30
2018-04-27T23:18:17.446Z,58.30
2018-04-27T23:20:46.439Z,58.40
2018-04-27T23:23:14.510Z,58.50
2018-04-27T23:25:56.099Z,58.70
2018-04-27T23:28:24.165Z,58.70
2018-04-27T23:30:52.243Z,58.80
2018-04-27T23:33:20.308Z,58.90
2018-04-27T23:36:10.265Z,59.00
2018-04-27T23:38:38.363Z,59.20
2018-04-27T23:41:06.438Z,59.20
2018-04-27T23:43:35.225Z,59.40
2018-04-27T23:46:03.298Z,59.50
2018-04-27T23:48:31.366Z,59.60
2018-04-27T23:51:00.364Z,59.70
2018-04-27T23:53:29.249Z,59.90
2018-04-27T23:55:57.426Z,59.80
2018-04-27T23:58:27.236Z,60.00
